メインページ
METAR-TAF:

METAR-TAF

空港 :

アシガバート空港

アシガバート, トルクメニスタン

緯度: 37-59N, 経度: 058-22E, 海抜: 211m

現時点の気象観測

当レポートは1時間2分前の03:00(UTC)に作成
東/南東の風 4kt、東/北東から南東の間で変化する
気温 11°C
湿度 100%
気圧 1007 hPa
視程: 5000m
高度5000ftの雲は散在している
高度10000ftの千切れ雲あり
高度20000ftの曇り

METAR: UTAA 250300Z 11004KT 070V130 5000 BR SCT050 BKN100 OVC200 11/11 Q1007 R88/70D NOSIG

時間: 09:02 (04:02 UTC)

予報

当レポートは5時間32分前の22:30(UTC)に作成
予報は25日の 00時(UTC)から 25日の 24時(UTC)まで有効
北/北東の風 14kt
視程: 3000m
高度3000ftの雲は散在している
25日の 00時(UTC)から 25日の 04時(UTC)まで一時的に
南/南西の風 14kt
視程: 1000m
高度400ftの千切れ雲あり
確率 40% :
25日の 00時(UTC)から 25日の 04時(UTC)まで一時的に
視程: 0400m
高度100ftの
25日の 04時(UTC)から 25日の 05時(UTC)まで徐々に
西の風 16kt、最大26ktの突風を伴う
視程: 5000m
高度3000ftの千切れ雲あり
高度5000ftの雲は散在している, 積乱雲.
25日の 11時(UTC)から 25日の 24時(UTC)まで一時的に
北西の風 18kt、最大28ktの突風を伴う
視程: 3000m
弱いにわか雨

TAF: UTAA 242230Z 2500/2524 03014KT 3000 BR SCT030 530009 TEMPO 2500/2504 20014KT 1000 BR BKN004 PROB40 TEMPO 2500/2504 0400 FG VV001 BECMG 2504/2505 28016G26KT 5000 BKN030 SCT050CB TEMPO 2511/2524 31018G28KT 3000 -SHRA

4,000以上の空港の気象観測と天気予報(METAR報とTAF報)

利用可能な観測所は地図上に黄色い丸と赤い丸で示す。

丸の上にカーソルを重ねると観測所名を参照できる。

次にクリックすると気象観測と天気予報を参照できる。

マップの切り替え:黒色「×」印の緑ボタンをクリックして拡大、「-」印の緑ボタンをクリックして縮小、緑色の三角印をクリックして隣りの地図に切り替え


METAR-TAF: